createdAt,value
2023-03-21T00:03:58.925Z,59.74
2023-03-21T00:09:21.228Z,59.99
2023-03-21T00:11:58.103Z,59.94
2023-03-21T00:14:34.029Z,59.83
2023-03-21T00:17:06.521Z,59.94
2023-03-21T00:19:39.305Z,59.82
2023-03-21T00:22:09.198Z,59.93
2023-03-21T00:24:40.164Z,59.85
2023-03-21T00:27:39.408Z,59.88
2023-03-21T00:29:57.908Z,59.98
2023-03-21T00:32:29.249Z,60.04
2023-03-21T00:35:21.578Z,59.84
2023-03-21T00:37:49.888Z,59.67
2023-03-21T00:40:35.420Z,59.84
2023-03-21T00:43:20.117Z,59.88
2023-03-21T00:45:59.114Z,59.84
2023-03-21T00:48:30.165Z,59.69
2023-03-21T00:51:02.920Z,59.72
2023-03-21T00:53:35.881Z,59.72
2023-03-21T00:56:04.685Z,59.80
2023-03-21T00:58:37.754Z,59.68
2023-03-21T01:01:13.174Z,59.92
2023-03-21T01:03:51.837Z,59.71
2023-03-21T01:06:20.810Z,59.63
2023-03-21T01:08:53.168Z,59.45
2023-03-21T01:11:43.554Z,59.70
2023-03-21T01:14:23.032Z,59.61
2023-03-21T01:16:53.837Z,59.42
2023-03-21T01:19:44.724Z,59.65
2023-03-21T01:22:18.256Z,59.95
2023-03-21T01:37:27.166Z,60.11
2023-03-21T01:46:22.108Z,60.28
2023-03-21T01:48:56.248Z,60.40
2023-03-21T01:51:29.956Z,60.20
2023-03-21T01:54:01.174Z,60.49
2023-03-21T01:56:41.502Z,60.32
2023-03-21T01:59:34.745Z,60.40
2023-03-21T02:05:06.708Z,60.49
2023-03-21T02:16:04.196Z,60.51
2023-03-21T02:30:45.562Z,60.44
2023-03-21T02:48:00.281Z,60.30
2023-03-21T02:54:30.359Z,60.17
2023-03-21T03:00:51.565Z,60.10
2023-03-21T03:03:31.744Z,59.94
2023-03-21T03:06:19.185Z,60.08
2023-03-21T03:09:20.402Z,60.17
2023-03-21T03:15:04.385Z,60.58
2023-03-21T03:17:53.761Z,59.90
2023-03-21T03:20:45.192Z,59.95
2023-03-21T03:23:22.652Z,59.91
2023-03-21T03:25:58.896Z,59.57
2023-03-21T03:28:32.733Z,59.93
2023-03-21T03:31:09.508Z,59.89
2023-03-21T03:33:44.749Z,60.02
2023-03-21T03:36:33.578Z,60.02
2023-03-21T03:39:06.696Z,60.22
2023-03-21T03:42:04.303Z,59.91
2023-03-21T03:44:28.617Z,59.93
2023-03-21T03:50:04.532Z,59.79
2023-03-21T03:52:57.359Z,59.75
2023-03-21T03:55:36.245Z,59.70
2023-03-21T03:58:08.330Z,59.49
2023-03-21T04:00:43.224Z,59.70
2023-03-21T04:03:12.647Z,59.66
2023-03-21T04:05:44.400Z,59.64
2023-03-21T04:08:13.000Z,59.53
2023-03-21T04:10:43.853Z,59.79
2023-03-21T04:13:12.360Z,59.59
2023-03-21T04:15:42.072Z,59.86
2023-03-21T04:18:10.818Z,59.46
2023-03-21T04:20:39.203Z,59.71
2023-03-21T04:23:08.112Z,59.59
2023-03-21T04:25:38.723Z,59.52
2023-03-21T04:28:10.916Z,59.55
2023-03-21T04:30:40.980Z,59.23
2023-03-21T04:33:09.313Z,59.50
2023-03-21T04:35:38.410Z,59.40
2023-03-21T04:38:09.768Z,59.21
2023-03-21T04:40:39.490Z,59.54
2023-03-21T04:43:10.996Z,59.62
2023-03-21T04:45:39.235Z,59.40
2023-03-21T04:48:07.720Z,59.58
2023-03-21T04:50:36.357Z,59.71
2023-03-21T04:53:05.018Z,59.50
2023-03-21T04:55:33.300Z,59.64
2023-03-21T04:58:01.693Z,59.55
2023-03-21T05:00:32.234Z,59.69
2023-03-21T05:03:02.769Z,60.12
2023-03-21T05:05:32.277Z,59.65
2023-03-21T05:08:01.052Z,59.44
2023-03-21T05:10:29.722Z,60.01
2023-03-21T05:12:57.979Z,59.68
2023-03-21T05:15:27.211Z,59.85
2023-03-21T05:17:59.060Z,59.94
2023-03-21T05:20:28.724Z,59.76
2023-03-21T05:22:58.540Z,59.83
2023-03-21T05:25:44.701Z,59.75
2023-03-21T05:28:16.939Z,59.73
2023-03-21T05:30:56.411Z,59.34
2023-03-21T05:33:27.668Z,59.78
2023-03-21T05:35:56.077Z,59.58
2023-03-21T05:38:24.493Z,59.68
2023-03-21T05:40:54.000Z,59.72
2023-03-21T05:43:23.598Z,59.54
2023-03-21T05:45:52.149Z,59.56
2023-03-21T05:48:20.939Z,59.70
2023-03-21T05:50:51.318Z,59.70
2023-03-21T05:53:19.452Z,59.64
2023-03-21T05:55:48.646Z,59.91
2023-03-21T05:58:18.037Z,59.80
2023-03-21T06:00:46.471Z,59.92
2023-03-21T06:03:14.645Z,59.77
2023-03-21T06:05:43.768Z,59.66
2023-03-21T06:08:13.580Z,59.75
2023-03-21T06:10:43.052Z,59.79
2023-03-21T06:13:13.479Z,59.58
2023-03-21T06:15:42.440Z,59.96
2023-03-21T06:18:10.882Z,60.30
2023-03-21T06:20:40.864Z,59.93
2023-03-21T06:23:09.483Z,59.97
2023-03-21T06:25:39.372Z,60.06
2023-03-21T06:28:07.546Z,59.80
2023-03-21T06:30:36.022Z,60.20
2023-03-21T06:33:04.126Z,60.42
2023-03-21T06:35:32.728Z,60.28
2023-03-21T06:38:01.430Z,60.17
2023-03-21T06:40:30.901Z,59.86
2023-03-21T06:43:00.649Z,59.61
2023-03-21T06:45:33.455Z,60.05
2023-03-21T06:48:02.732Z,59.71
2023-03-21T06:50:31.298Z,60.18
2023-03-21T06:52:59.941Z,60.48
2023-03-21T06:55:29.535Z,60.28
2023-03-21T06:57:59.897Z,60.16
2023-03-21T07:00:29.609Z,60.49
2023-03-21T07:02:58.269Z,60.55
2023-03-21T07:05:27.052Z,60.26
2023-03-21T07:07:55.461Z,60.14
2023-03-21T07:10:23.405Z,59.81
2023-03-21T07:12:52.861Z,59.87
2023-03-21T07:15:24.504Z,60.03
2023-03-21T07:17:55.183Z,59.85
2023-03-21T07:20:24.522Z,59.77
2023-03-21T07:22:52.954Z,59.63
2023-03-21T07:25:22.460Z,59.05
2023-03-21T07:27:50.968Z,59.36
2023-03-21T07:30:23.628Z,59.53
2023-03-21T07:32:56.144Z,59.14
2023-03-21T07:35:24.463Z,59.32
2023-03-21T07:37:52.960Z,58.95
2023-03-21T07:43:16.489Z,59.09
2023-03-21T07:45:51.838Z,59.00
2023-03-21T07:48:25.208Z,58.83
2023-03-21T07:54:01.385Z,58.67
2023-03-21T07:56:29.463Z,58.51
2023-03-21T07:58:59.570Z,58.32
2023-03-21T08:01:33.361Z,58.41
2023-03-21T08:04:03.821Z,58.26
2023-03-21T08:06:32.677Z,58.12
2023-03-21T08:09:01.795Z,57.55
2023-03-21T08:11:32.225Z,57.52
2023-03-21T08:14:01.099Z,57.63
2023-03-21T08:16:30.053Z,57.41
2023-03-21T08:18:58.752Z,57.32
2023-03-21T08:21:29.918Z,57.29
2023-03-21T08:23:58.865Z,57.13
2023-03-21T08:26:27.143Z,57.29
2023-03-21T08:28:55.438Z,57.29
2023-03-21T08:31:23.862Z,56.84
2023-03-21T08:33:59.532Z,56.69
2023-03-21T08:36:30.579Z,56.90
2023-03-21T08:39:05.691Z,56.87
2023-03-21T08:41:34.030Z,56.30
2023-03-21T08:44:02.418Z,56.47
2023-03-21T08:46:31.685Z,56.66
2023-03-21T08:48:59.689Z,56.75
2023-03-21T08:51:29.805Z,57.13
2023-03-21T08:53:57.712Z,57.85
2023-03-21T08:56:26.174Z,58.11
2023-03-21T08:58:56.021Z,58.24
2023-03-21T09:01:24.151Z,58.02
2023-03-21T09:03:52.729Z,57.59
2023-03-21T09:06:24.170Z,57.85
2023-03-21T09:08:54.484Z,57.97
2023-03-21T09:11:22.936Z,57.89
2023-03-21T09:14:01.042Z,57.59
2023-03-21T09:16:30.119Z,57.65
2023-03-21T09:18:59.372Z,57.59
2023-03-21T09:21:30.316Z,57.09
2023-03-21T09:24:01.059Z,57.19
2023-03-21T09:26:32.518Z,57.35
2023-03-21T09:29:01.016Z,56.95
2023-03-21T09:31:29.708Z,57.16
2023-03-21T09:33:58.471Z,57.15
2023-03-21T09:36:31.289Z,57.16
2023-03-21T09:39:01.340Z,56.44
2023-03-21T09:41:56.863Z,56.59
2023-03-21T09:44:42.235Z,56.19
2023-03-21T09:47:20.805Z,56.38
2023-03-21T09:50:13.173Z,55.75
2023-03-21T09:52:48.330Z,55.54
2023-03-21T09:55:21.454Z,55.32
2023-03-21T09:57:57.704Z,55.17
2023-03-21T10:00:31.196Z,55.81
2023-03-21T10:03:03.470Z,54.82
2023-03-21T10:05:33.770Z,54.97
2023-03-21T10:08:07.910Z,54.19
2023-03-21T10:10:42.558Z,54.29
2023-03-21T10:13:16.909Z,53.84
2023-03-21T10:15:44.919Z,53.96
2023-03-21T10:18:20.052Z,53.81
2023-03-21T10:20:48.107Z,53.85
2023-03-21T10:23:21.472Z,54.05
2023-03-21T10:25:55.033Z,54.06
2023-03-21T10:28:27.807Z,53.58
2023-03-21T10:30:58.329Z,53.20
2023-03-21T10:33:29.058Z,52.98
2023-03-21T10:36:01.329Z,53.23
2023-03-21T10:38:30.934Z,53.15
2023-03-21T10:41:00.264Z,53.43
2023-03-21T10:43:38.956Z,53.46
2023-03-21T10:46:10.224Z,53.45
2023-03-21T10:48:40.229Z,52.85
2023-03-21T10:51:11.874Z,53.40
2023-03-21T10:53:47.631Z,53.46
2023-03-21T10:56:17.339Z,52.68
2023-03-21T10:58:48.633Z,52.78
2023-03-21T11:01:32.358Z,52.46
2023-03-21T11:04:02.839Z,52.44
2023-03-21T11:06:33.744Z,51.97
2023-03-21T11:09:06.506Z,51.84
2023-03-21T11:11:42.488Z,51.91
2023-03-21T11:14:26.986Z,51.49
2023-03-21T11:16:55.299Z,51.54
2023-03-21T11:19:31.977Z,51.38
2023-03-21T11:22:01.260Z,51.36
2023-03-21T11:24:31.627Z,51.40
2023-03-21T11:27:01.930Z,51.44
2023-03-21T11:29:35.682Z,51.03
2023-03-21T11:32:12.178Z,51.46
2023-03-21T11:34:50.069Z,52.00
2023-03-21T11:37:26.292Z,51.99
2023-03-21T11:40:06.868Z,51.51
2023-03-21T11:42:44.739Z,51.51
2023-03-21T11:45:16.322Z,50.81
2023-03-21T11:47:46.290Z,51.21
2023-03-21T11:50:20.362Z,51.76
2023-03-21T11:52:59.138Z,51.37
2023-03-21T11:55:37.557Z,49.97
2023-03-21T11:58:22.194Z,50.51
2023-03-21T12:00:57.605Z,50.91
2023-03-21T12:03:48.686Z,51.41
2023-03-21T12:06:26.510Z,51.28
2023-03-21T12:09:07.441Z,51.43
2023-03-21T12:11:50.305Z,50.76
2023-03-21T12:14:28.697Z,49.25
2023-03-21T12:17:06.480Z,48.34
2023-03-21T12:20:07.920Z,48.79
2023-03-21T12:22:47.069Z,47.97
2023-03-21T12:25:19.629Z,48.51
2023-03-21T12:27:57.711Z,48.83
2023-03-21T12:30:43.071Z,46.76
2023-03-21T12:33:26.483Z,46.92
2023-03-21T12:36:20.085Z,47.33
2023-03-21T12:38:58.093Z,47.22
2023-03-21T12:41:29.836Z,47.25
2023-03-21T12:44:01.988Z,46.46
2023-03-21T12:46:37.277Z,47.27
2023-03-21T12:49:11.750Z,47.74
2023-03-21T12:51:44.851Z,47.56
2023-03-21T12:54:24.891Z,47.08
2023-03-21T12:57:01.177Z,47.02
2023-03-21T12:59:37.429Z,46.71
2023-03-21T13:02:19.060Z,47.14
2023-03-21T13:05:00.855Z,47.03
2023-03-21T13:07:32.676Z,47.67
2023-03-21T13:10:02.284Z,47.78
2023-03-21T13:12:49.986Z,47.63
2023-03-21T13:15:35.902Z,47.67
2023-03-21T13:18:16.377Z,47.05
2023-03-21T13:20:48.621Z,46.61
2023-03-21T13:23:18.933Z,45.71
2023-03-21T13:25:49.690Z,45.64
2023-03-21T13:28:21.951Z,44.97
2023-03-21T13:30:52.336Z,44.58
2023-03-21T13:33:27.615Z,44.41
2023-03-21T13:36:05.645Z,45.19
2023-03-21T13:38:36.659Z,44.77
2023-03-21T13:41:09.709Z,44.69
2023-03-21T13:43:44.657Z,44.26
2023-03-21T13:46:16.868Z,43.79
2023-03-21T13:48:59.422Z,42.75
2023-03-21T13:51:47.713Z,42.07
2023-03-21T13:54:22.644Z,42.47
2023-03-21T13:56:53.322Z,42.61
2023-03-21T13:59:38.186Z,41.77
2023-03-21T14:02:23.805Z,41.84
2023-03-21T14:05:07.416Z,41.97
2023-03-21T14:07:40.733Z,42.14
2023-03-21T14:10:19.080Z,42.02
2023-03-21T14:12:48.238Z,41.48
2023-03-21T14:15:20.990Z,42.28
2023-03-21T14:17:54.861Z,42.67
2023-03-21T14:20:29.628Z,42.67
2023-03-21T14:22:58.936Z,42.13
2023-03-21T14:25:41.047Z,42.20
2023-03-21T14:28:19.075Z,41.96
2023-03-21T14:30:53.757Z,42.11
2023-03-21T14:33:29.988Z,42.13
2023-03-21T14:36:04.617Z,42.34
2023-03-21T14:38:36.113Z,42.44
2023-03-21T14:41:07.557Z,42.65
2023-03-21T14:43:37.761Z,42.59
2023-03-21T14:46:07.207Z,42.39
2023-03-21T14:48:36.980Z,42.78
2023-03-21T14:51:12.719Z,43.41
2023-03-21T14:53:43.694Z,44.13
2023-03-21T14:56:19.447Z,43.46
2023-03-21T14:58:49.750Z,43.27
2023-03-21T15:01:23.805Z,43.42
2023-03-21T15:03:53.842Z,42.61
2023-03-21T15:06:56.367Z,42.60
2023-03-21T15:09:29.209Z,42.58
2023-03-21T15:12:02.214Z,43.64
2023-03-21T15:14:34.826Z,43.25
2023-03-21T15:17:07.934Z,43.17
2023-03-21T15:19:40.044Z,43.04
2023-03-21T15:22:15.528Z,43.45
2023-03-21T15:24:48.696Z,43.19
2023-03-21T15:27:20.530Z,42.94
2023-03-21T15:29:54.294Z,43.32
2023-03-21T15:32:26.219Z,43.60
2023-03-21T15:34:56.711Z,43.78
2023-03-21T15:37:29.299Z,43.91
2023-03-21T15:40:11.714Z,43.38
2023-03-21T15:42:43.470Z,43.85
2023-03-21T15:45:27.414Z,43.93
2023-03-21T15:48:03.732Z,43.67
2023-03-21T15:50:38.764Z,43.34
2023-03-21T15:53:13.257Z,43.55
2023-03-21T15:55:52.407Z,43.66
2023-03-21T15:58:24.437Z,44.02
2023-03-21T16:00:56.382Z,44.24
2023-03-21T16:03:27.520Z,44.29
2023-03-21T16:06:12.943Z,44.14
2023-03-21T16:08:47.035Z,44.28
2023-03-21T16:11:28.543Z,44.52
2023-03-21T16:13:57.729Z,44.38
2023-03-21T16:16:28.443Z,44.59
2023-03-21T16:18:58.890Z,44.38
2023-03-21T16:21:29.239Z,44.62
2023-03-21T16:23:58.746Z,44.91
2023-03-21T16:26:30.885Z,44.79
2023-03-21T16:29:01.540Z,44.94
2023-03-21T16:31:33.233Z,45.03
2023-03-21T16:34:01.938Z,45.05
2023-03-21T16:36:31.689Z,45.29
2023-03-21T16:39:00.357Z,45.58
2023-03-21T16:41:29.974Z,45.83
2023-03-21T16:43:58.218Z,45.55
2023-03-21T16:46:33.796Z,45.90
2023-03-21T16:49:02.096Z,46.04
2023-03-21T16:51:34.136Z,46.14
2023-03-21T16:54:04.016Z,46.24
2023-03-21T16:56:39.633Z,46.59
2023-03-21T16:59:09.271Z,46.68
2023-03-21T17:01:40.345Z,46.58
2023-03-21T17:04:09.081Z,46.81
2023-03-21T17:06:44.686Z,46.78
2023-03-21T17:09:14.480Z,46.91
2023-03-21T17:11:47.660Z,47.23
2023-03-21T17:14:16.963Z,46.92
2023-03-21T17:16:45.316Z,47.17
2023-03-21T17:19:16.832Z,47.37
2023-03-21T17:21:46.149Z,47.27
2023-03-21T17:24:15.413Z,47.41
2023-03-21T17:26:45.756Z,47.63
2023-03-21T17:29:14.838Z,47.90
2023-03-21T17:31:47.479Z,48.03
2023-03-21T17:34:15.752Z,48.09
2023-03-21T17:36:46.510Z,47.90
2023-03-21T17:39:19.799Z,48.23
2023-03-21T17:41:54.100Z,48.30
2023-03-21T17:44:24.513Z,48.05
2023-03-21T17:46:54.203Z,48.23
2023-03-21T17:49:24.431Z,48.42
2023-03-21T17:51:53.899Z,48.89
2023-03-21T17:54:22.619Z,48.74
2023-03-21T17:56:53.397Z,48.60
2023-03-21T17:59:25.045Z,48.75
2023-03-21T18:01:57.754Z,49.13
2023-03-21T18:04:28.313Z,49.49
2023-03-21T18:07:01.083Z,49.67
2023-03-21T18:09:32.100Z,49.63
2023-03-21T18:12:18.900Z,50.12
2023-03-21T18:14:47.743Z,50.59
2023-03-21T18:17:18.934Z,50.43
2023-03-21T18:19:50.619Z,50.38
2023-03-21T18:22:24.110Z,50.60
2023-03-21T18:25:00.788Z,50.63
2023-03-21T18:27:53.469Z,50.73
2023-03-21T18:30:53.449Z,50.70
2023-03-21T18:33:19.337Z,50.81
2023-03-21T18:39:02.026Z,50.96
2023-03-21T18:41:32.159Z,51.04
2023-03-21T18:44:18.947Z,51.08
2023-03-21T18:50:13.823Z,51.21
2023-03-21T18:52:51.204Z,51.25
2023-03-21T18:55:44.212Z,51.63
2023-03-21T18:58:41.642Z,51.53
2023-03-21T19:01:30.140Z,52.20
2023-03-21T19:04:19.965Z,52.16
2023-03-21T19:06:58.273Z,52.18
2023-03-21T19:09:31.597Z,51.98
2023-03-21T19:12:03.617Z,52.04
2023-03-21T19:14:37.755Z,52.04
2023-03-21T19:18:05.696Z,52.51
2023-03-21T19:25:50.149Z,52.65
2023-03-21T19:28:21.160Z,52.74
2023-03-21T19:30:50.786Z,52.88
2023-03-21T19:33:21.355Z,53.18
2023-03-21T19:36:08.930Z,53.29
2023-03-21T19:38:42.441Z,53.40
2023-03-21T19:41:12.229Z,53.24
2023-03-21T19:43:54.320Z,53.59
2023-03-21T19:46:25.623Z,53.60
2023-03-21T19:48:59.234Z,53.75
2023-03-21T19:51:43.945Z,53.59
2023-03-21T19:54:12.349Z,53.83
2023-03-21T19:56:48.037Z,53.78
2023-03-21T19:59:17.398Z,54.05
2023-03-21T20:01:53.020Z,54.10
2023-03-21T20:04:28.256Z,53.98
2023-03-21T20:07:00.364Z,54.04
2023-03-21T20:09:52.325Z,54.16
2023-03-21T20:12:25.062Z,54.43
2023-03-21T20:15:17.049Z,54.27
2023-03-21T20:27:07.367Z,54.52
2023-03-21T20:30:10.863Z,54.12
2023-03-21T20:32:34.837Z,54.31
2023-03-21T20:35:19.082Z,54.22
2023-03-21T20:37:51.339Z,54.00
2023-03-21T20:40:20.836Z,54.60
2023-03-21T20:42:49.452Z,54.21
2023-03-21T20:45:39.456Z,54.31
2023-03-21T20:48:08.947Z,54.33
2023-03-21T20:51:01.024Z,54.35
2023-03-21T20:53:31.698Z,54.12
2023-03-21T20:56:02.375Z,54.22
2023-03-21T20:58:57.233Z,54.31
2023-03-21T21:01:20.932Z,54.05
2023-03-21T21:03:49.630Z,54.21
2023-03-21T21:06:20.492Z,54.03
2023-03-21T21:08:50.458Z,54.14
2023-03-21T21:12:05.226Z,54.23
2023-03-21T21:14:10.799Z,54.14
2023-03-21T21:16:40.678Z,54.29
2023-03-21T21:19:15.424Z,54.29
2023-03-21T21:21:44.176Z,54.51
2023-03-21T21:24:17.456Z,54.31
2023-03-21T21:26:49.317Z,54.51
2023-03-21T21:29:18.916Z,54.42
2023-03-21T21:31:50.097Z,54.55
2023-03-21T21:34:22.893Z,54.81
2023-03-21T21:36:57.652Z,54.82
2023-03-21T21:39:31.757Z,54.63
2023-03-21T21:42:00.319Z,54.82
2023-03-21T21:44:35.439Z,54.83
2023-03-21T21:47:08.582Z,55.22
2023-03-21T21:49:37.463Z,54.87
2023-03-21T21:52:05.674Z,54.72
2023-03-21T21:54:36.287Z,55.46
2023-03-21T21:57:05.832Z,55.36
2023-03-21T21:59:34.740Z,55.59
2023-03-21T22:02:04.437Z,55.63
2023-03-21T22:04:34.988Z,55.86
2023-03-21T22:07:06.598Z,56.03
2023-03-21T22:09:36.427Z,56.12
2023-03-21T22:12:04.624Z,56.21
2023-03-21T22:14:32.578Z,56.47
2023-03-21T22:17:02.582Z,56.42
2023-03-21T22:19:34.111Z,56.93
2023-03-21T22:22:05.474Z,56.58
2023-03-21T22:28:18.148Z,57.05
2023-03-21T22:30:46.223Z,57.38
2023-03-21T22:33:18.033Z,57.15
2023-03-21T22:35:46.918Z,57.38
2023-03-21T22:38:27.148Z,57.07
2023-03-21T22:41:30.622Z,57.70
2023-03-21T22:44:08.292Z,57.83
2023-03-21T22:46:38.735Z,57.78
2023-03-21T22:52:21.543Z,58.05
2023-03-21T22:54:51.216Z,58.04
2023-03-21T22:57:30.501Z,58.06
2023-03-21T23:00:48.811Z,57.90
2023-03-21T23:03:23.075Z,58.21
2023-03-21T23:06:06.692Z,58.41
2023-03-21T23:08:40.784Z,58.33
2023-03-21T23:11:17.389Z,58.33
2023-03-21T23:14:07.209Z,58.32
2023-03-21T23:16:59.399Z,58.48
2023-03-21T23:19:45.739Z,58.52
2023-03-21T23:23:05.554Z,58.63
2023-03-21T23:25:42.412Z,58.38
2023-03-21T23:31:01.052Z,58.61
2023-03-21T23:33:33.317Z,58.83
2023-03-21T23:36:03.109Z,58.62
2023-03-21T23:38:36.771Z,58.67
2023-03-21T23:41:10.318Z,58.95
2023-03-21T23:43:44.341Z,58.85
2023-03-21T23:46:13.847Z,59.02
2023-03-21T23:48:59.094Z,59.01
2023-03-21T23:51:29.241Z,58.98
2023-03-21T23:53:58.925Z,58.85
2023-03-21T23:56:36.785Z,58.92
